Time;durP1;ratioP1;P1;durP2;ratioP2;P2;SDS_P1;SDS_P2;PMS_P1;PMS_P2;Temp;Humidity;BMP_temperature;BMP_pressure;BME280_temperature;BME280_humidity;BME280_pressure;Samples;Min_cycle;Max_cycle;Signal;HPM_P1;HPM_P2
2022/01/18 00:00:55;;;;;;;47.83;7.25;;;5.60;99.90;;;;;;5030988;28;20026;-65
2022/01/18 00:03:21;;;;;;;52.50;8.38;;;5.70;99.90;;;;;;5031029;28;20028;-63
2022/01/18 00:05:49;;;;;;;52.28;7.43;;;5.60;99.90;;;;;;5013152;28;20387;-64
2022/01/18 00:08:17;;;;;;;47.05;7.55;;;5.60;99.90;;;;;;5031392;28;20021;-64
2022/01/18 00:10:44;;;;;;;59.65;7.45;;;5.60;99.90;;;;;;5031091;28;20028;-65
2022/01/18 00:13:25;;;;;;;59.15;7.30;;;5.60;99.90;;;;;;5030417;28;20028;-63
2022/01/18 00:18:19;;;;;;;51.90;7.97;;;5.60;99.90;;;;;;5031619;28;20056;-63
2022/01/18 00:21:17;;;;;;;49.55;6.63;;;5.60;99.90;;;;;;5031459;28;20022;-66
2022/01/18 00:23:43;;;;;;;48.25;6.70;;;5.60;99.90;;;;;;5031236;28;20033;-65
2022/01/18 00:26:10;;;;;;;47.33;6.45;;;5.70;99.90;;;;;;5031040;28;20025;-64
2022/01/18 00:28:37;;;;;;;58.28;7.72;;;5.60;99.90;;;;;;5030627;28;20435;-67
2022/01/18 00:31:31;;;;;;;42.53;6.18;;;5.70;99.90;;;;;;5030246;28;20159;-65
2022/01/18 00:39:06;;;;;;;34.90;5.38;;;5.80;99.90;;;;;;5029870;28;20432;-64
2022/01/18 00:41:32;;;;;;;39.83;6.57;;;5.80;99.90;;;;;;5030761;28;20040;-66
2022/01/18 00:43:57;;;;;;;38.83;4.70;;;5.80;99.90;;;;;;5029642;28;20033;-66
2022/01/18 00:46:23;;;;;;;32.80;4.82;;;5.90;99.90;;;;;;5030143;28;20612;-67
2022/01/18 00:48:52;;;;;;;30.35;4.50;;;5.80;99.90;;;;;;5029818;28;20029;-67
2022/01/18 00:51:19;;;;;;;39.70;4.72;;;5.90;99.90;;;;;;5030160;28;20022;-67
2022/01/18 00:53:46;;;;;;;35.47;4.38;;;5.90;99.90;;;;;;5011715;28;20036;-68
2022/01/18 00:58:41;;;;;;;36.67;5.43;;;5.90;99.90;;;;;;5030099;28;20479;-67
2022/01/18 01:01:07;;;;;;;31.73;5.15;;;5.90;99.90;;;;;;5029517;28;20534;-67
2022/01/18 01:03:33;;;;;;;24.40;4.57;;;5.90;99.90;;;;;;5029262;28;20041;-68
2022/01/18 01:05:59;;;;;;;24.42;4.03;;;5.90;99.90;;;;;;5029563;28;20491;-68
2022/01/18 01:08:25;;;;;;;34.05;4.25;;;5.90;99.90;;;;;;5012138;28;20036;-67
2022/01/18 01:10:51;;;;;;;27.77;4.32;;;5.90;99.90;;;;;;5029827;28;20367;-67
2022/01/18 01:13:17;;;;;;;27.15;4.20;;;5.80;99.90;;;;;;5029416;28;20026;-67
2022/01/18 01:19:05;;;;;;;29.25;4.55;;;5.80;99.90;;;;;;5029952;28;20057;-67
2022/01/18 01:33:03;;;;;;;24.60;3.75;;;6.00;99.90;;;;;;5030584;28;20103;-64
2022/01/18 01:43:36;;;;;;;23.90;4.90;;;6.00;99.90;;;;;;5029697;28;20126;-66
2022/01/18 01:46:03;;;;;;;28.55;5.35;;;6.00;99.90;;;;;;5014129;28;20042;-67
2022/01/18 01:48:29;;;;;;;20.70;3.83;;;6.00;99.90;;;;;;5012056;28;20030;-66
2022/01/18 01:51:04;;;;;;;24.23;4.22;;;6.00;99.90;;;;;;5029153;28;20030;-67
2022/01/18 01:53:32;;;;;;;26.23;4.28;;;6.00;99.90;;;;;;5029132;28;20026;-66
2022/01/18 01:55:58;;;;;;;20.00;3.53;;;6.10;99.90;;;;;;5029132;28;20037;-66
2022/01/18 01:58:26;;;;;;;37.03;5.00;;;6.00;99.90;;;;;;5011800;28;20375;-66
2022/01/18 02:00:58;;;;;;;26.33;4.78;;;6.00;99.90;;;;;;5028648;28;20030;-66
2022/01/18 02:03:24;;;;;;;18.98;3.05;;;6.00;99.90;;;;;;5028712;28;20033;-66
2022/01/18 02:05:51;;;;;;;26.73;3.90;;;6.10;99.90;;;;;;5028627;28;20038;-67
2022/01/18 02:08:16;;;;;;;26.67;4.05;;;6.10;99.90;;;;;;5011624;28;20030;-67
2022/01/18 02:10:43;;;;;;;28.05;3.63;;;6.10;99.90;;;;;;5028923;28;20044;-67
2022/01/18 02:13:12;;;;;;;25.52;3.75;;;6.00;99.90;;;;;;5028350;28;20087;-66
2022/01/18 02:15:44;;;;;;;23.25;3.58;;;6.00;99.90;;;;;;5029140;28;20601;-66
2022/01/18 02:23:38;;;;;;;22.38;3.28;;;6.00;99.90;;;;;;5032353;28;20038;-66
2022/01/18 02:26:04;;;;;;;21.50;2.70;;;6.10;99.90;;;;;;5032712;28;20030;-66
2022/01/18 02:28:31;;;;;;;18.17;2.63;;;6.10;99.90;;;;;;5032715;28;20033;-66
2022/01/18 02:30:56;;;;;;;23.73;2.95;;;6.10;99.90;;;;;;5032215;28;20028;-66
2022/01/18 02:33:23;;;;;;;20.15;3.13;;;6.10;99.90;;;;;;5014524;28;20030;-66
2022/01/18 02:35:50;;;;;;;15.45;2.53;;;6.10;99.90;;;;;;5032693;28;20033;-66
2022/01/18 02:38:18;;;;;;;16.52;2.88;;;6.20;99.90;;;;;;5033005;28;20390;-66
2022/01/18 02:40:44;;;;;;;18.10;2.55;;;6.20;99.90;;;;;;5032228;28;20037;-66
2022/01/18 02:45:57;;;;;;;11.35;2.00;;;6.20;99.90;;;;;;5032427;28;20036;-66
2022/01/18 02:48:25;;;;;;;20.63;2.78;;;6.20;99.90;;;;;;5032691;28;20026;-68
2022/01/18 02:50:51;;;;;;;10.40;2.28;;;6.20;99.90;;;;;;5031744;28;20018;-67
2022/01/18 02:53:16;;;;;;;13.80;2.50;;;6.20;99.90;;;;;;5032000;28;20040;-65
2022/01/18 02:55:53;;;;;;;21.25;2.60;;;6.20;99.90;;;;;;5031965;28;20044;-67
2022/01/18 02:58:32;;;;;;;23.40;2.53;;;6.20;99.90;;;;;;5032356;28;20056;-66
2022/01/18 03:03:36;;;;;;;19.13;2.40;;;6.30;99.90;;;;;;5031555;28;20025;-66
2022/01/18 03:06:06;;;;;;;11.87;2.23;;;6.30;99.90;;;;;;5031630;28;20160;-67
2022/01/18 03:08:33;;;;;;;19.17;2.80;;;6.30;99.90;;;;;;5032332;28;20101;-65
2022/01/18 03:11:00;;;;;;;10.90;2.05;;;6.30;99.90;;;;;;5031698;28;20025;-67
2022/01/18 03:13:26;;;;;;;14.65;2.90;;;6.30;99.90;;;;;;5013768;28;20029;-67
2022/01/18 03:15:52;;;;;;;21.67;3.03;;;6.20;99.90;;;;;;5031343;28;20101;-67
2022/01/18 03:18:18;;;;;;;9.57;1.98;;;6.20;99.90;;;;;;5032214;28;20030;-66
2022/01/18 03:20:43;;;;;;;10.23;2.00;;;6.30;99.90;;;;;;5031488;28;20030;-67
2022/01/18 03:23:14;;;;;;;12.00;2.10;;;6.30;99.90;;;;;;5031254;28;20041;-67
2022/01/18 03:25:52;;;;;;;10.75;1.80;;;6.30;99.90;;;;;;5031627;28;20040;-66
2022/01/18 03:28:18;;;;;;;19.92;2.20;;;6.40;99.90;;;;;;5031936;28;20065;-66
2022/01/18 03:30:47;;;;;;;15.85;2.75;;;6.30;99.90;;;;;;5030494;28;20038;-67
2022/01/18 03:33:18;;;;;;;15.98;2.10;;;6.30;99.90;;;;;;5031313;28;20415;-67
2022/01/18 03:35:45;;;;;;;13.65;2.15;;;6.30;99.90;;;;;;5031647;28;20167;-66
2022/01/18 03:38:13;;;;;;;14.43;1.90;;;6.30;99.90;;;;;;5031641;28;20028;-67
2022/01/18 03:40:39;;;;;;;10.10;2.25;;;6.30;99.90;;;;;;5031499;28;20057;-65
2022/01/18 03:43:06;;;;;;;16.83;2.55;;;6.30;99.90;;;;;;5012605;28;20026;-66
2022/01/18 03:45:40;;;;;;;19.65;2.45;;;6.30;99.90;;;;;;5031911;28;20030;-68
2022/01/18 03:48:10;;;;;;;20.20;2.60;;;6.30;99.90;;;;;;5031274;28;20059;-66
2022/01/18 03:50:36;;;;;;;17.13;2.05;;;6.30;99.90;;;;;;5031281;28;20180;-67
2022/01/18 03:53:02;;;;;;;16.42;2.20;;;6.40;99.90;;;;;;5030692;28;20112;-68
2022/01/18 03:55:28;;;;;;;11.43;2.50;;;6.30;99.90;;;;;;5031812;28;20025;-66
2022/01/18 03:57:54;;;;;;;23.42;2.35;;;6.30;99.90;;;;;;5030886;28;20033;-68
2022/01/18 04:00:23;;;;;;;8.35;1.83;;;6.40;99.90;;;;;;5031255;28;20549;-65
2022/01/18 04:02:50;;;;;;;9.00;2.03;;;6.40;99.90;;;;;;5030099;28;20030;-68
2022/01/18 04:05:15;;;;;;;12.05;2.40;;;6.30;99.90;;;;;;5030992;28;20501;-66
2022/01/18 04:07:42;;;;;;;20.33;2.40;;;6.40;99.90;;;;;;5030881;28;20033;-68
2022/01/18 04:10:08;;;;;;;20.10;2.55;;;6.40;99.90;;;;;;5030684;28;20053;-66
2022/01/18 04:12:35;;;;;;;17.45;2.35;;;6.40;99.90;;;;;;5012906;28;20079;-67
2022/01/18 04:15:06;;;;;;;17.27;2.58;;;6.40;99.90;;;;;;5030521;28;20562;-67
2022/01/18 04:30:43;;;;;;;13.20;2.15;;;6.40;99.90;;;;;;5030853;28;20360;-65
2022/01/18 04:33:09;;;;;;;11.02;2.35;;;6.40;99.90;;;;;;5012195;28;20487;-65
2022/01/18 04:35:35;;;;;;;19.50;2.50;;;6.40;99.90;;;;;;5030754;28;20026;-65
2022/01/18 04:38:00;;;;;;;10.10;2.08;;;6.40;99.90;;;;;;5030175;28;20036;-65
2022/01/18 04:40:30;;;;;;;9.57;2.00;;;6.30;99.90;;;;;;5030667;28;20470;-65
2022/01/18 04:51:07;;;;;;;12.70;1.60;;;6.30;99.90;;;;;;5021752;28;20025;-66
2022/01/18 04:53:34;;;;;;;10.38;2.13;;;6.40;99.90;;;;;;5030238;28;20087;-66
2022/01/18 04:56:03;;;;;;;15.48;1.98;;;6.50;99.90;;;;;;5030571;28;20037;-67
2022/01/18 04:58:28;;;;;;;15.63;2.20;;;6.50;99.90;;;;;;5030181;28;20167;-66
2022/01/18 05:00:58;;;;;;;12.70;2.10;;;6.50;99.90;;;;;;5029849;28;20560;-66
2022/01/18 05:03:24;;;;;;;9.98;2.28;;;6.50;99.90;;;;;;5029577;28;20087;-67
2022/01/18 05:05:52;;;;;;;13.05;1.88;;;6.50;99.90;;;;;;5029310;28;20475;-67
2022/01/18 05:08:19;;;;;;;14.30;1.95;;;6.50;99.90;;;;;;5030220;28;20041;-67
2022/01/18 05:10:51;;;;;;;16.98;2.17;;;6.50;99.90;;;;;;5029886;28;20533;-66
2022/01/18 05:13:56;;;;;;;11.35;1.90;;;6.40;99.90;;;;;;5029192;28;20496;-66
2022/01/18 05:16:54;;;;;;;15.02;1.90;;;6.40;99.90;;;;;;5029096;28;20183;-66
2022/01/18 05:24:18;;;;;;;21.23;3.85;;;6.20;99.90;;;;;;5029951;28;20111;-66
2022/01/18 05:26:43;;;;;;;20.67;3.03;;;6.10;99.90;;;;;;5011873;28;20088;-66
2022/01/18 05:29:09;;;;;;;31.77;3.25;;;6.10;99.90;;;;;;5029487;28;20547;-66
2022/01/18 05:31:35;;;;;;;18.77;3.67;;;6.10;99.90;;;;;;5029606;28;20099;-69
2022/01/18 05:34:00;;;;;;;21.10;3.30;;;6.00;99.90;;;;;;5019764;28;20471;-64
2022/01/18 05:36:27;;;;;;;18.45;3.15;;;6.00;99.90;;;;;;5010337;28;20059;-65
2022/01/18 05:38:53;;;;;;;30.98;4.40;;;6.00;99.90;;;;;;5001143;28;20113;-51
2022/01/18 05:41:19;;;;;;;19.88;4.20;;;6.00;99.90;;;;;;4998609;28;20125;-57
2022/01/18 05:43:45;;;;;;;17.33;3.45;;;6.10;99.90;;;;;;5022159;28;20379;-57
2022/01/18 05:46:11;;;;;;;21.95;4.18;;;6.10;99.90;;;;;;5019473;28;20033;-55
2022/01/18 05:48:37;;;;;;;18.98;4.55;;;6.10;99.90;;;;;;5016677;28;20025;-56
2022/01/18 05:51:03;;;;;;;18.48;3.88;;;6.00;99.90;;;;;;5016761;28;20026;-56
2022/01/18 05:53:36;;;;;;;23.23;3.90;;;6.00;99.90;;;;;;5010242;28;20034;-56
2022/01/18 05:56:03;;;;;;;23.08;5.05;;;6.00;99.90;;;;;;5002353;28;20124;-58
2022/01/18 05:58:29;;;;;;;27.13;4.80;;;6.00;99.90;;;;;;5013989;28;20041;-57
2022/01/18 06:00:55;;;;;;;31.55;5.20;;;6.10;99.90;;;;;;5014546;28;20419;-56
2022/01/18 06:03:35;;;;;;;20.90;4.55;;;6.00;99.90;;;;;;4998704;28;20387;-54
2022/01/18 06:08:45;;;;;;;27.98;4.97;;;6.00;99.90;;;;;;5022761;28;20084;-57
2022/01/18 06:11:11;;;;;;;28.13;5.15;;;6.00;99.90;;;;;;5009450;28;20064;-58
2022/01/18 06:13:37;;;;;;;31.30;6.28;;;6.00;99.90;;;;;;5016919;28;20026;-57
2022/01/18 06:16:03;;;;;;;37.65;6.65;;;6.10;99.90;;;;;;5031949;28;20112;-54
2022/01/18 06:18:28;;;;;;;44.65;6.70;;;6.10;99.90;;;;;;5014073;28;20439;-53
2022/01/18 06:20:54;;;;;;;35.85;7.32;;;6.10;99.90;;;;;;5012347;28;20049;-58
2022/01/18 06:23:21;;;;;;;32.53;6.80;;;6.10;99.90;;;;;;5012326;28;20030;-58
2022/01/18 06:25:47;;;;;;;32.28;6.93;;;6.10;99.90;;;;;;5016714;28;20112;-56
2022/01/18 06:28:12;;;;;;;27.45;7.05;;;6.10;99.90;;;;;;5024385;28;20466;-55
2022/01/18 06:30:38;;;;;;;43.80;8.00;;;6.20;99.90;;;;;;5020154;28;20026;-57
2022/01/18 06:33:12;;;;;;;45.78;7.03;;;6.20;99.90;;;;;;5027466;28;20025;-59
2022/01/18 06:35:38;;;;;;;41.78;8.65;;;6.20;99.90;;;;;;5012903;28;20446;-56
2022/01/18 06:38:04;;;;;;;43.15;8.13;;;6.20;99.90;;;;;;5019638;28;20034;-56
2022/01/18 06:40:29;;;;;;;41.90;8.18;;;6.20;99.90;;;;;;5031824;28;20041;-53
2022/01/18 06:42:55;;;;;;;40.38;8.45;;;6.20;99.90;;;;;;5022960;28;20030;-51
2022/01/18 06:45:21;;;;;;;52.65;10.18;;;6.30;99.90;;;;;;5005224;28;20030;-56
2022/01/18 06:47:46;;;;;;;50.55;10.02;;;6.30;99.90;;;;;;5005763;28;20025;-56
2022/01/18 06:50:12;;;;;;;52.80;9.50;;;6.30;99.90;;;;;;5019873;28;20033;-56
2022/01/18 06:52:39;;;;;;;48.65;9.52;;;6.30;99.90;;;;;;5021708;28;20045;-55
2022/01/18 06:55:06;;;;;;;50.88;8.45;;;6.30;99.90;;;;;;5017843;28;20090;-56
2022/01/18 06:57:32;;;;;;;39.78;8.85;;;6.30;99.90;;;;;;5023623;28;20025;-56
2022/01/18 06:59:58;;;;;;;58.90;8.60;;;6.30;99.90;;;;;;5021635;28;20396;-55
2022/01/18 07:02:23;;;;;;;48.22;9.27;;;6.30;99.90;;;;;;5019084;28;20490;-55
2022/01/18 07:04:49;;;;;;;52.45;9.23;;;6.30;99.90;;;;;;5012063;28;20100;-53
2022/01/18 07:07:17;;;;;;;53.25;9.55;;;6.40;99.90;;;;;;5020244;28;20037;-52
2022/01/18 07:09:44;;;;;;;49.80;9.98;;;6.40;99.90;;;;;;5012874;28;20053;-57
2022/01/18 07:12:11;;;;;;;62.67;8.82;;;6.40;99.90;;;;;;5010947;28;20026;-54
2022/01/18 07:14:39;;;;;;;43.53;8.32;;;6.40;99.90;;;;;;5018475;28;20391;-54
2022/01/18 07:17:05;;;;;;;55.50;9.43;;;6.40;99.90;;;;;;5010999;28;20085;-52
2022/01/18 07:19:32;;;;;;;51.33;9.60;;;6.40;99.90;;;;;;4993966;28;20037;-54
2022/01/18 07:21:58;;;;;;;54.90;8.93;;;6.40;99.90;;;;;;5017962;28;20495;-51
2022/01/18 07:24:43;;;;;;;49.15;8.73;;;6.50;99.90;;;;;;5023455;28;20033;-54
2022/01/18 07:27:10;;;;;;;52.35;8.82;;;6.50;99.90;;;;;;5024345;28;20034;-55
2022/01/18 07:29:37;;;;;;;58.10;7.45;;;6.50;99.90;;;;;;5023002;28;20497;-53
2022/01/18 07:32:04;;;;;;;53.55;9.77;;;6.60;99.90;;;;;;5016879;28;20029;-56
2022/01/18 07:34:32;;;;;;;40.25;7.88;;;6.60;99.90;;;;;;5022141;28;20061;-52
2022/01/18 07:36:58;;;;;;;53.03;9.50;;;6.60;99.90;;;;;;5022937;28;20039;-51
2022/01/18 07:39:23;;;;;;;45.25;7.72;;;6.60;99.90;;;;;;5016965;28;20472;-54
2022/01/18 07:41:49;;;;;;;45.08;7.50;;;6.60;99.90;;;;;;5012213;28;20033;-54
2022/01/18 07:44:14;;;;;;;38.20;7.13;;;6.50;99.90;;;;;;5012268;28;20041;-58
2022/01/18 07:46:40;;;;;;;38.78;7.35;;;6.50;99.90;;;;;;5010532;28;20026;-56
2022/01/18 07:49:06;;;;;;;41.20;6.90;;;6.50;99.90;;;;;;5010299;28;20097;-51
2022/01/18 07:51:31;;;;;;;57.47;7.97;;;6.70;99.90;;;;;;5010972;28;20457;-52
2022/01/18 07:53:57;;;;;;;49.08;8.27;;;6.70;99.90;;;;;;5014008;28;20034;-57
2022/01/18 07:56:23;;;;;;;41.10;7.78;;;6.70;99.90;;;;;;5007153;28;20034;-62
2022/01/18 07:58:48;;;;;;;46.78;7.93;;;6.70;99.90;;;;;;5011798;28;20485;-54
2022/01/18 08:01:14;;;;;;;44.75;8.23;;;6.70;99.90;;;;;;5016291;28;20140;-58
2022/01/18 08:03:39;;;;;;;42.78;7.57;;;6.70;99.90;;;;;;5012190;28;20430;-58
2022/01/18 08:06:05;;;;;;;52.33;8.10;;;6.60;99.90;;;;;;5018177;28;20561;-57
2022/01/18 08:08:32;;;;;;;49.70;7.80;;;6.60;99.90;;;;;;5017912;28;20054;-57
2022/01/18 08:10:58;;;;;;;47.15;8.02;;;6.60;99.90;;;;;;5024714;28;20033;-57
2022/01/18 08:13:28;;;;;;;55.58;8.70;;;6.60;99.90;;;;;;4995634;28;20071;-57
2022/01/18 08:16:10;;;;;;;61.83;8.88;;;6.60;99.90;;;;;;5007389;28;20520;-54
2022/01/18 08:18:36;;;;;;;54.85;8.40;;;6.60;99.90;;;;;;4999295;28;20033;-52
2022/01/18 08:21:03;;;;;;;57.13;8.43;;;6.70;99.90;;;;;;5009691;28;20041;-52
2022/01/18 08:23:28;;;;;;;65.25;8.65;;;6.70;99.90;;;;;;5017937;28;20084;-54
2022/01/18 08:25:54;;;;;;;55.47;8.07;;;6.70;99.90;;;;;;5015552;28;20030;-56
2022/01/18 08:28:19;;;;;;;55.42;9.10;;;6.70;99.90;;;;;;5017940;28;20475;-57
2022/01/18 08:30:45;;;;;;;54.92;9.23;;;6.70;99.90;;;;;;5023262;28;20100;-57
2022/01/18 08:33:10;;;;;;;57.95;8.63;;;6.70;99.90;;;;;;5022633;28;20124;-57
2022/01/18 08:35:37;;;;;;;49.20;8.23;;;6.70;99.90;;;;;;5010193;28;20278;-56
2022/01/18 08:38:03;;;;;;;56.67;8.57;;;6.70;99.90;;;;;;5021263;28;20116;-56
2022/01/18 08:40:29;;;;;;;53.63;8.60;;;6.70;99.90;;;;;;5021614;28;20125;-57
2022/01/18 08:42:55;;;;;;;44.22;7.85;;;6.70;99.90;;;;;;5025937;28;20039;-57
2022/01/18 08:45:20;;;;;;;59.95;8.48;;;6.80;99.90;;;;;;5016853;28;20030;-58
2022/01/18 08:47:46;;;;;;;52.72;8.98;;;6.70;99.90;;;;;;5011033;28;20041;-59
2022/01/18 08:50:12;;;;;;;43.83;7.57;;;6.80;99.90;;;;;;5016076;28;20022;-58
2022/01/18 08:52:38;;;;;;;41.10;7.13;;;6.80;99.90;;;;;;5019617;28;20071;-58
2022/01/18 08:55:04;;;;;;;40.40;6.10;;;6.70;99.90;;;;;;5015915;28;20030;-57
2022/01/18 08:57:30;;;;;;;40.10;6.43;;;6.80;99.90;;;;;;5028266;28;20060;-60
2022/01/18 08:59:55;;;;;;;45.30;7.38;;;6.80;99.90;;;;;;5016377;28;20177;-59
2022/01/18 09:02:21;;;;;;;41.58;6.35;;;6.80;99.90;;;;;;5026955;28;20514;-61
2022/01/18 09:04:47;;;;;;;47.22;6.95;;;6.90;99.90;;;;;;5018285;28;20438;-60
2022/01/18 09:07:12;;;;;;;41.30;6.25;;;6.90;99.90;;;;;;5008127;28;20065;-60
2022/01/18 09:09:42;;;;;;;37.88;6.80;;;6.90;99.90;;;;;;5009982;28;20418;-61
2022/01/18 09:12:11;;;;;;;50.50;6.97;;;6.90;99.90;;;;;;5011222;28;20042;-63
2022/01/18 09:14:38;;;;;;;48.33;6.78;;;6.90;99.90;;;;;;5023314;28;20022;-62
2022/01/18 09:17:04;;;;;;;41.35;6.80;;;6.90;99.90;;;;;;5014782;28;20423;-63
2022/01/18 09:19:29;;;;;;;57.35;6.47;;;6.90;99.90;;;;;;5018433;28;20026;-62
2022/01/18 09:21:57;;;;;;;43.00;6.55;;;6.90;99.90;;;;;;5006874;28;20038;-63
2022/01/18 09:24:23;;;;;;;45.92;6.57;;;6.90;99.90;;;;;;5014051;28;20491;-61
2022/01/18 09:26:48;;;;;;;36.90;6.25;;;6.90;99.90;;;;;;5016481;28;20068;-61
2022/01/18 09:29:15;;;;;;;38.25;5.80;;;6.90;99.90;;;;;;5020920;28;20036;-61
2022/01/18 09:31:40;;;;;;;41.25;6.70;;;6.90;99.90;;;;;;5009961;28;20458;-56
2022/01/18 09:34:06;;;;;;;40.10;6.85;;;6.90;99.90;;;;;;5017161;28;20034;-57
2022/01/18 09:36:32;;;;;;;52.20;8.48;;;6.90;99.90;;;;;;5007367;28;20036;-55
2022/01/18 09:38:58;;;;;;;33.10;6.28;;;6.90;99.90;;;;;;5021611;28;20033;-58
2022/01/18 09:41:31;;;;;;;37.47;6.22;;;6.90;99.90;;;;;;5017990;28;20066;-60
2022/01/18 09:43:57;;;;;;;36.20;5.35;;;6.90;99.90;;;;;;4984737;28;20034;-59
2022/01/18 09:46:25;;;;;;;49.95;6.18;;;7.00;99.90;;;;;;5008305;28;20048;-60
2022/01/18 09:48:53;;;;;;;46.63;6.55;;;7.00;99.90;;;;;;4995747;28;20026;-58
2022/01/18 09:51:18;;;;;;;31.83;5.72;;;7.00;99.90;;;;;;5008748;28;20030;-59
2022/01/18 09:53:44;;;;;;;38.25;6.10;;;7.00;99.90;;;;;;5021320;28;20032;-59
2022/01/18 09:56:09;;;;;;;41.83;6.72;;;7.00;99.90;;;;;;5023951;28;20467;-57
2022/01/18 09:58:35;;;;;;;40.60;5.82;;;7.00;99.90;;;;;;5020967;28;20033;-60
2022/01/18 10:01:01;;;;;;;38.00;6.45;;;7.10;99.90;;;;;;5006744;28;20465;-59
2022/01/18 10:03:31;;;;;;;32.25;5.60;;;7.10;99.90;;;;;;5015123;28;20037;-59
2022/01/18 10:05:57;;;;;;;32.28;5.53;;;7.10;99.90;;;;;;5017013;28;20044;-57
2022/01/18 10:08:23;;;;;;;44.05;5.95;;;7.20;99.90;;;;;;5010246;28;20105;-59
2022/01/18 10:11:02;;;;;;;42.20;6.53;;;7.20;99.90;;;;;;5015735;28;20411;-59
2022/01/18 10:13:33;;;;;;;32.88;5.43;;;7.20;99.90;;;;;;5023322;28;20029;-61
2022/01/18 10:16:17;;;;;;;38.92;5.93;;;7.30;99.90;;;;;;5022715;28;20026;-60
2022/01/18 10:18:49;;;;;;;40.50;5.88;;;7.30;99.90;;;;;;5008960;28;20026;-58
2022/01/18 10:21:44;;;;;;;42.50;5.70;;;7.30;99.90;;;;;;5006174;28;20025;-52
2022/01/18 10:24:25;;;;;;;44.85;6.15;;;7.40;99.90;;;;;;5012613;28;20040;-58
2022/01/18 10:26:55;;;;;;;40.60;6.57;;;7.40;99.90;;;;;;5019797;28;20034;-54
2022/01/18 10:29:27;;;;;;;34.95;5.10;;;7.50;99.90;;;;;;5028218;28;20026;-53
2022/01/18 10:34:40;;;;;;;36.45;5.63;;;7.60;99.90;;;;;;5008117;28;19913;-53
2022/01/18 10:37:31;;;;;;;31.75;5.32;;;7.60;99.90;;;;;;5012190;28;20455;-53
2022/01/18 10:40:06;;;;;;;31.63;4.28;;;7.60;99.90;;;;;;5002633;28;20046;-55
2022/01/18 10:42:47;;;;;;;32.47;5.32;;;7.70;99.90;;;;;;5023417;28;20037;-55
2022/01/18 10:45:31;;;;;;;32.42;5.00;;;7.60;99.90;;;;;;5019989;28;20037;-53
2022/01/18 10:48:14;;;;;;;26.38;4.65;;;7.60;99.90;;;;;;5016245;28;20122;-56
2022/01/18 10:50:44;;;;;;;34.15;5.50;;;7.60;99.90;;;;;;5013225;28;20032;-57
2022/01/18 10:53:22;;;;;;;33.50;4.50;;;7.70;99.90;;;;;;5011044;28;20034;-58
2022/01/18 10:55:50;;;;;;;19.98;4.45;;;7.70;99.90;;;;;;5020970;28;20107;-55
2022/01/18 10:58:19;;;;;;;28.52;4.13;;;7.70;99.90;;;;;;5022141;28;20037;-56
2022/01/18 11:00:45;;;;;;;29.42;4.53;;;7.70;99.90;;;;;;5019238;28;20510;-62
2022/01/18 11:03:11;;;;;;;28.90;4.72;;;7.70;99.90;;;;;;5019705;28;20061;-59
2022/01/18 11:05:43;;;;;;;32.17;4.80;;;7.60;99.90;;;;;;5024209;28;20060;-57
2022/01/18 11:08:09;;;;;;;48.35;5.30;;;7.70;99.90;;;;;;5024531;28;20038;-61
2022/01/18 11:10:40;;;;;;;24.05;4.80;;;7.70;99.90;;;;;;5010750;28;20401;-61
2022/01/18 11:13:12;;;;;;;32.95;4.97;;;7.70;99.90;;;;;;5022579;28;20036;-60
2022/01/18 11:15:46;;;;;;;29.33;4.90;;;7.70;99.90;;;;;;5002980;28;20037;-60
2022/01/18 11:18:28;;;;;;;24.33;4.13;;;7.70;99.90;;;;;;5016898;28;20280;-59
2022/01/18 11:20:54;;;;;;;40.55;4.95;;;7.60;99.90;;;;;;5022858;28;20049;-61
2022/01/18 11:23:22;;;;;;;23.88;4.38;;;7.70;99.90;;;;;;5030817;28;20033;-62
2022/01/18 11:25:49;;;;;;;28.88;4.75;;;7.70;99.90;;;;;;5030976;28;20032;-62
2022/01/18 11:28:16;;;;;;;36.25;6.47;;;7.80;99.90;;;;;;5018946;28;20030;-62
2022/01/18 11:30:44;;;;;;;29.10;4.32;;;7.80;99.90;;;;;;5011564;28;20052;-61
2022/01/18 11:33:15;;;;;;;23.63;4.00;;;7.80;99.90;;;;;;5010628;28;20026;-58
2022/01/18 11:35:56;;;;;;;27.30;4.30;;;7.80;99.90;;;;;;5011644;28;20487;-63
2022/01/18 11:38:29;;;;;;;31.88;4.85;;;7.80;99.90;;;;;;5011196;28;20448;-58
2022/01/18 11:40:57;;;;;;;25.63;4.13;;;7.80;99.90;;;;;;5007489;28;20467;-59
2022/01/18 11:43:41;;;;;;;23.17;3.65;;;7.80;99.90;;;;;;5010737;28;20038;-56
2022/01/18 11:46:24;;;;;;;22.73;3.58;;;7.80;99.90;;;;;;5011057;28;20462;-59
2022/01/18 11:49:00;;;;;;;15.93;3.88;;;7.80;99.90;;;;;;5010677;28;20018;-57
2022/01/18 11:51:39;;;;;;;15.15;3.10;;;7.80;99.90;;;;;;5010598;28;20026;-57
2022/01/18 11:57:21;;;;;;;17.17;3.88;;;7.80;99.90;;;;;;5011423;28;20029;-58
2022/01/18 11:59:52;;;;;;;16.40;3.07;;;7.80;99.90;;;;;;5011100;28;20472;-54
2022/01/18 12:02:40;;;;;;;20.77;2.85;;;7.80;99.90;;;;;;5010766;28;20499;-59
2022/01/18 12:05:13;;;;;;;12.85;2.63;;;7.80;99.90;;;;;;5007627;28;20149;-54
2022/01/18 12:07:44;;;;;;;13.35;2.75;;;7.80;99.90;;;;;;5007493;28;20042;-59
2022/01/18 12:10:29;;;;;;;25.13;3.70;;;7.70;99.90;;;;;;5013869;28;20032;-60
2022/01/18 12:12:57;;;;;;;11.82;2.55;;;7.70;99.90;;;;;;5012754;28;20087;-57
2022/01/18 12:15:22;;;;;;;14.52;3.08;;;7.80;99.90;;;;;;5022903;28;20029;-59
2022/01/18 12:17:53;;;;;;;16.25;3.05;;;7.70;99.90;;;;;;5017778;28;20552;-57
2022/01/18 12:20:34;;;;;;;15.07;2.90;;;7.80;99.90;;;;;;5018919;28;20026;-56
2022/01/18 12:23:04;;;;;;;11.93;2.88;;;7.70;99.90;;;;;;5017464;28;20018;-57
2022/01/18 12:25:34;;;;;;;16.60;2.97;;;7.70;99.90;;;;;;5026113;28;20038;-57
2022/01/18 12:28:47;;;;;;;11.30;2.60;;;7.70;99.90;;;;;;5018296;28;20125;-57
2022/01/18 12:34:30;;;;;;;13.55;3.22;;;7.60;99.90;;;;;;5017846;28;20030;-59
2022/01/18 12:37:08;;;;;;;15.35;3.50;;;7.60;99.90;;;;;;5020889;28;20037;-57
2022/01/18 12:45:20;;;;;;;17.65;3.40;;;7.50;99.90;;;;;;5011934;28;20039;-56
2022/01/18 12:47:52;;;;;;;10.00;3.15;;;7.50;99.90;;;;;;5014118;28;20042;-61
2022/01/18 12:50:31;;;;;;;13.40;3.50;;;7.50;99.90;;;;;;5019708;28;20084;-57
2022/01/18 12:53:05;;;;;;;9.25;3.10;;;7.50;99.90;;;;;;5012164;28;20034;-56
2022/01/18 12:55:47;;;;;;;13.55;3.67;;;7.50;99.90;;;;;;5016914;28;20026;-59
2022/01/18 12:58:27;;;;;;;13.05;3.55;;;7.40;99.90;;;;;;5021139;28;20056;-59
2022/01/18 13:00:55;;;;;;;10.52;3.42;;;7.30;99.90;;;;;;5015908;28;20510;-58
2022/01/18 13:03:51;;;;;;;8.18;3.22;;;7.40;99.90;;;;;;5017202;28;20104;-59
2022/01/18 13:06:19;;;;;;;11.93;3.28;;;7.40;99.90;;;;;;5023407;28;20126;-59
2022/01/18 13:08:52;;;;;;;10.95;2.72;;;7.40;99.90;;;;;;5010003;28;20105;-58
2022/01/18 13:11:24;;;;;;;5.80;2.58;;;7.40;99.90;;;;;;5018988;28;20165;-58
2022/01/18 13:14:00;;;;;;;9.70;3.00;;;7.30;99.90;;;;;;5011620;28;20022;-58
2022/01/18 13:27:17;;;;;;;9.88;3.00;;;7.50;99.90;;;;;;5015912;28;20046;-59
2022/01/18 13:29:44;;;;;;;12.20;3.83;;;7.40;99.90;;;;;;5016262;28;20092;-54
2022/01/18 13:32:24;;;;;;;6.53;3.20;;;7.40;99.90;;;;;;5016564;28;20068;-57
2022/01/18 13:34:55;;;;;;;17.55;3.55;;;7.40;99.90;;;;;;5015813;28;20103;-55
2022/01/18 13:37:26;;;;;;;10.57;3.70;;;7.40;99.90;;;;;;5018103;28;20420;-55
2022/01/18 13:39:55;;;;;;;17.30;3.17;;;7.50;99.90;;;;;;5015737;28;20456;-58
2022/01/18 13:42:31;;;;;;;10.30;3.30;;;7.50;99.90;;;;;;5013067;28;20056;-56
2022/01/18 13:45:13;;;;;;;9.43;3.15;;;7.40;99.90;;;;;;5019919;28;20041;-59
2022/01/18 13:48:06;;;;;;;8.63;3.33;;;7.40;99.90;;;;;;5008111;28;20042;-54
2022/01/18 13:50:46;;;;;;;14.25;4.07;;;7.40;99.90;;;;;;5015780;28;20091;-54
2022/01/18 13:53:19;;;;;;;13.77;3.75;;;7.40;99.90;;;;;;5018924;28;20026;-57
2022/01/18 13:56:09;;;;;;;13.35;4.28;;;7.30;99.90;;;;;;5021163;28;20076;-57
2022/01/18 13:58:43;;;;;;;16.00;4.63;;;7.30;99.90;;;;;;5019938;28;20480;-57
2022/01/18 14:01:22;;;;;;;15.02;5.00;;;7.30;99.90;;;;;;5001756;28;20071;-58
2022/01/18 14:04:00;;;;;;;17.13;4.13;;;7.30;99.90;;;;;;5012969;28;20033;-59
2022/01/18 14:06:40;;;;;;;6.60;3.40;;;7.30;99.90;;;;;;5020574;28;20064;-59
2022/01/18 14:09:07;;;;;;;10.52;4.68;;;7.20;99.90;;;;;;5020702;28;20037;-58
2022/01/18 14:11:36;;;;;;;9.13;3.83;;;7.20;99.90;;;;;;5020734;28;20305;-59
2022/01/18 14:14:22;;;;;;;10.40;3.47;;;7.20;99.90;;;;;;5015316;28;20491;-59
2022/01/18 14:16:51;;;;;;;9.65;4.50;;;7.20;99.90;;;;;;5019236;28;20368;-57
2022/01/18 14:19:34;;;;;;;6.65;3.90;;;7.20;99.90;;;;;;5022629;28;20034;-58
2022/01/18 14:22:14;;;;;;;14.18;4.43;;;7.20;99.90;;;;;;5027118;28;20095;-53
2022/01/18 14:24:45;;;;;;;11.20;4.53;;;7.20;99.90;;;;;;5021253;28;20065;-54
2022/01/18 14:27:21;;;;;;;17.17;4.97;;;7.20;99.90;;;;;;5029494;28;20487;-57
2022/01/18 14:29:51;;;;;;;8.85;4.78;;;7.10;99.90;;;;;;5008045;28;20092;-55
2022/01/18 14:32:37;;;;;;;11.93;5.32;;;7.10;99.90;;;;;;5029761;28;20029;-59
2022/01/18 14:35:06;;;;;;;10.05;4.78;;;7.10;99.90;;;;;;5014551;28;20025;-53
2022/01/18 14:37:40;;;;;;;15.13;5.95;;;7.10;99.90;;;;;;5012908;28;20380;-59
2022/01/18 14:40:13;;;;;;;15.38;6.03;;;7.20;99.90;;;;;;5020014;28;20042;-59